Scroll down
FLIGHT INFORMATION
British Airways

BAW9001

At Arrival Gate

EGPK
 EGLL
DATE: 2020-07-14
GATE:  -
GATE DEPARTURE: 22:53
TAKEOFF: 23:00
DATE: 2020-07-14
GATE: 554
LANDING: 23:49
GATE ARRIVAL: 23:55
FLIGHT DATA
Crew: ANTON VIND
Speed: 471 kts Altitude: 37000 ft
Stage Length: 283 nm
Route: EGPK LUCCO OSMEG RIPNO DCS LAKEY NUGRA EGLL
Block Time: 1 Flight Time: 0.8
Fuel Used: 21297 LB
TRACK DATA
50000 FT1000 KT
AIRCRAFT INFORMATION
Aircraft Type: B744
Registration: G-CIVI
SELCAL: BGMS MSN/LN: 25814 / 1079
Operator: BRITISH AIRWAYS
Flights: 9 Block Time: 16.8 Flight Time: 15
Fuel Used: 389860 LB
  • DEPARTURE INFORMATION
    Date: 2020-07-14
    Airport: EGPK
    Gate:  -
    Gate Departure: 22:53
    Takeoff: 23:00
    ARRIVAL INFORMATION
    Date: 2020-07-14
    Airport: EGLL
    Gate: 554
    Landing: 23:49
    Gate Arrival: 23:55
  • FLIGHT DATA
    Crew: ANTON VIND
    Speed: 471 kts Altitude: 37000 ft
    Stage Length: 153 nm
    Route: EGPK LUCCO OSMEG RIPNO DCS LAKEY NUGRA EGLL
    Block Time: 1 Flight Time: 0.8
    Fuel Used: 21297 LB
  • AIRCRAFT INFORMATION
    Aircraft Type: B744
    Registration: G-CIVI
    SELCAL: BGMS MSN/LN: 25814 / 1079
    Operator: British Airways
    Flights: 9 Block Time: 16.8 Flight Time: 15
    Fuel Used: 389860 LB

DATALINK LOG | Newest first | Current as of: 2020-09-28 17:40:32
LABEL SEQUENCE CONTENT Dn/Up
5Z020915 JUL 20 00:01:23z / FLT DECK GOOD / ACF POS GOOD / GRND SERVICES GOOD / MAINT GOOD▼ Dn
QD560423:55 21.5▼ Dn
QC504723:49▼ Dn
2U4444EGLL 142320Z AUTO 36004KT 330V030 9999 BKN040 15/09 Q1016 NOSIG▲ Up
2S4428EGLL▼ Dn
GA2512YOUR ASSIGNMENT IS STILL GATE 554▲ Up
GR2512EGLL 23:48 HI-VAL NO DIPL/VIP NO▼ Dn
GA2411GATE 554▲ Up
GR2410EGLL 23:48 HI-VAL NO DIPL/VIP NO▼ Dn
UM1062017MAINTAIN MACH 0.77▲ Up
DM182007REQUEST M0.77▼ Dn
5U1330EGLL 150308Z 31006KT 9999 SCT040 15/09 Q1016▲ Up
5S1402EGLL▼ Dn
2U1127EGLL 142250Z AUTO 36004KT 330V040 9999 SCT040 15/09 Q1016 NOSIG▲ Up
2S1200EGLL▼ Dn
UM00767UNABLE▲ Up
DM220757REQUEST DIRECT TO LAKEY DUE TO A/C PERF▼ Dn
UM740565PROCEED DIRECT TO LAKEY▲ Up
DM220555REQUEST DIRECT TO LAKEY DUE TO A/C PERF▼ Dn
UM740464PROCEED DIRECT TO LAKEY▲ Up
DM220454REQUEST DIRECT TO LAKEY▼ Dn
QB005023:00▼ Dn
QA534022:53 42.8▼ Dn
Q05134[LINK ACK]▲ Up
Q05134[LINK TEST]▼ Dn
5U3623EGCC 150228Z 30010KT 9999 BKN012 12/12 Q1016▲ Up
5U3623EGLL 150228Z 31006KT 9999 SCT040 16/10 Q1016▲ Up
5U3623EGPK 150228Z 25009KT 3000 RADZ BKN006) 13/12 Q1013▲ Up
5S3720EGPK EGLL EGCC▼ Dn
2U3410EGCC 142150Z AUTO VRB02KT 9999 BKN010 BKN023 12/12 Q1016 NOSIG▲ Up
2U3410EGLL 142150Z AUTO 32003KT 9999 NCD 16/10 Q1016 NOSIG▲ Up
2U3410EGPK 142150Z 24008KT 9999 FEW009 SCT011 BKN020 13/12 Q1013▲ Up
2S3418EGPK EGLL EGCC▼ Dn
2U3213EGCC 142150Z AUTO VRB02KT 9999 BKN010 BKN023 12/12 Q1016 NOSIG▲ Up
2U3213EGLL 142150Z AUTO 32003KT 9999 NCD 16/10 Q1016 NOSIG▲ Up
2U3213EGPK 142150Z 24008KT 9999 FEW009 SCT011 BKN020 13/12 Q1013▲ Up
2S3317EGPK EGLL EGCC▼ Dn
A32115CLEARED TO EGLL VIA LUCO1K LUCCO Z248 OSMEG T256 DCS UL612 LAKEY NUGRA BNN1B. SQUAWK .▲ Up
B32106EGPK EGLL BAW9001 G-CIVI ▼ Dn
Q00955[LINK ACK]▲ Up
Q00955[LINK TEST]▼ Dn


AIRCRAFT HISTORY
FLIGHT DATE FLIGHT NO. ORIGIN DESTINATION ROUTE BLOCK TIME FLIGHT TIME FUEL USED (LB) PILOT
2020-07-18BAW287EGLL KSFO EGLL D268D D281G BURNB D356D UMLAT WOBUN WELIN AKUPA TIMPO ELVOS TNT RODOL TENSO BELOX REMSI APSOV PIKIL 5720N 5730N 5640N 5550N LOMSI JOVIE DUSMA YRL MOT PARZZ ROOHZ PUHGI JENSA FIMUV LEGGS KSFO11.310.9270321Michael Roth
2020-07-14BAW9001EGPK EGLL EGPK LUCCO OSMEG RIPNO DCS LAKEY NUGRA EGLL10.821297Anton Vind
2019-05-21BAW521EGPK EGPK EGPK PKW01 PKW02 PKW03 LUCCO EGSS0.100-HIDDEN-
2019-02-01BAW201EGLL EGPK EGLL D113B D071J D330T ULTIB TNT D312E DAYNE RW05R1.20.824484-HIDDEN-
2019-01-18BAW188EGGP EGLL D084A WHINB NANTI HON TOBID SOPIT WCONB0.80.618263-HIDDEN-
2018-11-19EGGP EGGP D084A WHINB NANTI STAFA HON PIXUP FINMA BETPO BIG SANDY MOTOX INGNB LESDO BUBLI LUVAL LANVI EPL LASAT BEGAR ELMUR RESIA LISKO GISNU XAPAT TIGRA BEDEX KRK MALED NIDRI ROTSA NEMES0.50.312136-HIDDEN-
2018-08-20BAW9001EGLL EGGP 0.90.517820Matthew Gales
2018-08-16BAW0EGFF EGLL 0.90.615479Matthew Gales
2018-03-30EGLL EGFF 0.40.310060Chris Makris